Time;durP1;ratioP1;P1;durP2;ratioP2;P2;SDS_P1;SDS_P2;PMS_P1;PMS_P2;Temp;Humidity;BMP_temperature;BMP_pressure;BME280_temperature;BME280_humidity;BME280_pressure;Samples;Min_cycle;Max_cycle;Signal;HPM_P1;HPM_P2
2022/06/19 00:02:15;;;;;;;5.05;2.22;;;;;;;17.71;73.39;100730.69;5530850;32;34068;-64
2022/06/19 00:05:18;;;;;;;3.72;2.40;;;;;;;17.67;73.50;100726.75;5530879;32;33981;-64
2022/06/19 00:08:21;;;;;;;2.95;1.98;;;;;;;17.62;74.88;100731.91;5530694;32;35215;-65
2022/06/19 00:11:25;;;;;;;3.60;2.10;;;;;;;17.63;74.42;100722.00;5531117;32;33932;-65
2022/06/19 00:14:27;;;;;;;4.82;2.37;;;;;;;17.57;74.74;100731.66;5530754;32;34055;-66
2022/06/19 00:17:30;;;;;;;6.60;2.45;;;;;;;17.54;73.94;100718.66;5530759;32;35300;-65
2022/06/19 00:20:33;;;;;;;3.53;1.75;;;;;;;17.55;73.24;100711.44;5530739;32;33877;-65
2022/06/19 00:23:37;;;;;;;5.28;2.17;;;;;;;17.52;72.91;100717.22;5530732;32;34536;-65
2022/06/19 00:26:40;;;;;;;2.22;1.73;;;;;;;17.49;72.46;100726.50;5530241;32;33922;-64
2022/06/19 00:29:42;;;;;;;4.70;2.33;;;;;;;17.44;73.60;100717.41;5530472;32;34862;-64
2022/06/19 00:32:45;;;;;;;2.50;1.90;;;;;;;17.40;73.62;100708.94;5530568;32;33895;-65
2022/06/19 00:35:48;;;;;;;2.72;1.80;;;;;;;17.33;73.38;100713.50;5530513;32;33885;-64
2022/06/19 00:38:50;;;;;;;3.45;2.05;;;;;;;17.28;73.37;100713.28;5529794;32;33374;-63
2022/06/19 00:41:53;;;;;;;4.25;2.12;;;;;;;17.25;74.03;100705.63;5530344;32;34260;-63
2022/06/19 00:44:55;;;;;;;3.40;1.90;;;;;;;17.19;74.16;100703.75;5530368;32;33904;-64
2022/06/19 00:48:23;;;;;;;2.50;1.87;;;;;;;17.26;74.14;100712.63;5530286;32;34696;-63
2022/06/19 00:51:25;;;;;;;3.85;2.12;;;;;;;17.15;74.41;100706.00;5524470;32;34034;-64
2022/06/19 00:54:34;;;;;;;4.60;2.37;;;;;;;17.12;74.69;100695.69;5530379;32;34135;-64
2022/06/19 00:57:44;;;;;;;5.22;2.22;;;;;;;17.07;74.50;100695.47;5530212;32;35248;-64
2022/06/19 01:00:53;;;;;;;3.05;1.98;;;;;;;17.05;75.22;100697.53;5529892;32;35012;-64
2022/06/19 01:04:09;;;;;;;4.12;2.10;;;;;;;17.02;75.78;100700.63;5529945;32;34062;-63
2022/06/19 01:07:13;;;;;;;3.35;2.20;;;;;;;16.96;75.82;100698.75;5529819;32;35123;-64
2022/06/19 01:10:16;;;;;;;4.12;2.35;;;;;;;16.93;75.95;100693.78;5529852;32;33951;-64
2022/06/19 01:13:23;;;;;;;6.82;2.20;;;;;;;16.88;76.20;100696.25;5529918;32;33949;-64
2022/06/19 01:16:25;;;;;;;5.53;2.30;;;;;;;16.87;76.78;100700.78;5529864;32;34364;-64
2022/06/19 01:19:36;;;;;;;4.55;2.20;;;;;;;16.88;77.68;100701.59;5529686;32;34150;-64
2022/06/19 01:22:57;;;;;;;3.03;2.10;;;;;;;16.87;77.43;100690.06;5529820;32;34583;-64
2022/06/19 01:26:00;;;;;;;7.95;2.30;;;;;;;16.82;77.34;100694.37;5529449;32;34035;-64
2022/06/19 01:29:04;;;;;;;2.67;2.22;;;;;;;16.75;77.43;100702.38;5529526;32;34161;-64
2022/06/19 01:32:07;;;;;;;4.37;2.28;;;;;;;16.72;78.17;100697.41;5529382;32;34598;-64
2022/06/19 01:35:10;;;;;;;3.37;2.10;;;;;;;16.69;78.83;100697.84;5529473;32;34408;-64
2022/06/19 01:38:16;;;;;;;2.28;1.90;;;;;;;16.70;78.56;100693.31;5529890;32;34483;-64
2022/06/19 01:41:27;;;;;;;4.03;2.15;;;;;;;16.67;78.10;100694.50;5532235;32;34578;-64
2022/06/19 01:44:32;;;;;;;3.00;2.28;;;;;;;16.65;78.05;100699.25;5532208;32;34064;-64
2022/06/19 01:47:35;;;;;;;4.15;2.28;;;;;;;16.63;78.55;100698.63;5532172;32;34024;-64
2022/06/19 01:50:38;;;;;;;4.30;2.12;;;;;;;16.56;79.17;100695.03;5532507;32;33932;-64
2022/06/19 01:53:48;;;;;;;2.65;2.15;;;;;;;16.59;80.58;100693.84;5532083;32;34552;-64
2022/06/19 01:56:54;;;;;;;3.40;2.22;;;;;;;16.58;80.75;100690.34;5532122;32;34042;-64
2022/06/19 01:59:57;;;;;;;3.67;2.08;;;;;;;16.57;80.99;100682.47;5527582;32;142160;-64
2022/06/19 02:03:08;;;;;;;3.30;2.05;;;;;;;16.47;81.00;100694.37;5531895;32;34219;-64
2022/06/19 02:06:14;;;;;;;3.90;2.20;;;;;;;16.46;79.99;100690.03;5531812;32;33922;-64
2022/06/19 02:09:19;;;;;;;5.47;2.22;;;;;;;16.40;79.76;100682.81;5532074;32;34224;-64
2022/06/19 02:12:23;;;;;;;3.50;2.00;;;;;;;16.39;80.58;100685.69;5532205;32;34607;-64
2022/06/19 02:15:25;;;;;;;3.62;2.30;;;;;;;16.31;80.42;100685.88;5532003;32;35294;-64
2022/06/19 02:18:34;;;;;;;3.17;2.00;;;;;;;16.28;80.57;100675.53;5532018;32;34595;-64
2022/06/19 02:22:09;;;;;;;3.83;2.20;;;;;;;16.22;81.12;100677.16;5531926;32;34545;-64
2022/06/19 02:25:13;;;;;;;3.45;2.12;;;;;;;16.20;81.87;100670.34;5531817;32;34046;-64
2022/06/19 02:28:16;;;;;;;6.97;2.30;;;;;;;16.12;82.32;100670.50;5532183;32;33975;-64
2022/06/19 02:31:20;;;;;;;3.12;2.08;;;;;;;16.13;82.94;100677.50;5531814;32;33984;-64
2022/06/19 02:34:37;;;;;;;3.47;2.03;;;;;;;16.09;83.13;100680.59;5531608;32;34538;-64
2022/06/19 02:37:45;;;;;;;6.07;2.45;;;;;;;16.04;83.46;100683.00;5531784;32;33913;-64
2022/06/19 02:41:14;;;;;;;3.33;2.22;;;;;;;16.00;83.76;100676.41;5531721;32;34657;-64
2022/06/19 02:44:17;;;;;;;4.85;2.50;;;;;;;16.01;83.67;100667.34;5531738;32;33925;-64
2022/06/19 02:47:22;;;;;;;3.70;2.40;;;;;;;16.00;84.13;100672.91;5531496;32;34077;-64
2022/06/19 02:50:28;;;;;;;4.05;2.20;;;;;;;15.97;84.73;100673.31;5531922;32;33922;-63
2022/06/19 02:53:31;;;;;;;5.28;2.47;;;;;;;15.92;85.64;100668.53;5531601;32;33908;-64
2022/06/19 02:56:34;;;;;;;4.95;2.30;;;;;;;15.93;86.25;100672.00;5531667;32;33887;-64
2022/06/19 02:59:37;;;;;;;5.72;2.12;;;;;;;15.89;86.72;100660.06;5531811;32;34672;-64
2022/06/19 03:02:40;;;;;;;4.78;3.00;;;;;;;15.87;87.37;100667.47;5531558;32;34022;-64
2022/06/19 03:05:42;;;;;;;3.10;2.40;;;;;;;15.87;87.73;100660.28;5531219;32;35512;-66
2022/06/19 03:08:45;;;;;;;3.45;2.65;;;;;;;15.87;88.31;100657.59;5531561;32;34094;-65
2022/06/19 03:11:48;;;;;;;3.35;2.50;;;;;;;15.91;89.14;100663.38;5531578;32;33859;-65
2022/06/19 03:14:51;;;;;;;5.07;2.80;;;;;;;15.91;89.63;100664.19;5531354;32;33952;-65
2022/06/19 03:17:54;;;;;;;7.12;2.50;;;;;;;15.93;89.85;100664.81;5530718;32;33997;-65
2022/06/19 03:20:56;;;;;;;5.95;2.42;;;;;;;15.97;90.19;100663.44;5531332;32;34035;-65
2022/06/19 03:23:59;;;;;;;4.90;2.60;;;;;;;16.05;90.31;100662.44;5531639;32;34576;-65
2022/06/19 03:27:02;;;;;;;4.57;2.28;;;;;;;16.05;90.45;100657.91;5531237;32;34607;-64
2022/06/19 03:30:06;;;;;;;7.60;2.58;;;;;;;16.14;90.29;100655.06;5531626;32;34582;-64
2022/06/19 03:33:10;;;;;;;5.78;2.45;;;;;;;16.20;89.91;100652.44;5531329;32;33993;-65
2022/06/19 03:36:12;;;;;;;3.60;2.40;;;;;;;16.30;89.72;100650.22;5531278;32;34559;-64
2022/06/19 03:39:15;;;;;;;8.45;2.97;;;;;;;16.36;89.65;100653.97;5531394;32;34101;-64
2022/06/19 03:42:18;;;;;;;3.95;2.60;;;;;;;16.44;89.68;100648.44;5531272;32;34627;-65
2022/06/19 03:45:21;;;;;;;3.90;2.22;;;;;;;16.55;89.62;100652.41;5531190;32;34305;-65
2022/06/19 03:48:24;;;;;;;4.45;2.30;;;;;;;16.62;89.69;100646.06;5531240;32;34311;-64
2022/06/19 03:51:27;;;;;;;4.47;2.50;;;;;;;16.87;89.84;100651.72;5531201;32;34214;-64
2022/06/19 03:54:29;;;;;;;3.03;2.30;;;;;;;16.93;89.23;100658.94;5531113;32;34626;-64
2022/06/19 03:57:32;;;;;;;3.05;2.33;;;;;;;16.92;89.28;100660.81;5531046;32;34365;-65
2022/06/19 04:00:35;;;;;;;4.28;2.50;;;;;;;16.96;89.49;100661.22;5529625;32;34715;-65
2022/06/19 04:03:39;;;;;;;3.72;2.30;;;;;;;17.11;88.39;100661.03;5530907;32;34004;-64
2022/06/19 04:06:42;;;;;;;3.80;2.47;;;;;;;17.18;87.87;100659.22;5531014;32;34654;-65
2022/06/19 04:09:45;;;;;;;3.00;2.22;;;;;;;17.20;88.05;100647.25;5525190;32;34629;-65
2022/06/19 04:12:47;;;;;;;4.95;2.40;;;;;;;17.31;87.67;100653.87;5530921;32;33994;-64
2022/06/19 04:15:50;;;;;;;5.93;2.37;;;;;;;17.45;87.45;100647.47;5531345;32;33944;-65
2022/06/19 04:18:55;;;;;;;5.97;2.70;;;;;;;17.69;86.94;100648.75;5530327;32;34354;-65
2022/06/19 04:21:58;;;;;;;4.00;2.80;;;;;;;17.61;84.51;100648.97;5530778;32;34644;-65
2022/06/19 04:25:01;;;;;;;4.75;2.78;;;;;;;17.64;84.16;100649.34;5531057;32;33853;-64
2022/06/19 04:28:04;;;;;;;5.30;3.05;;;;;;;17.75;83.31;100637.19;5530668;32;34276;-65
2022/06/19 04:31:08;;;;;;;3.78;3.37;;;;;;;17.88;82.61;100642.53;5530956;32;34595;-65
2022/06/19 04:34:11;;;;;;;5.75;3.40;;;;;;;18.01;81.82;100645.19;5530533;32;35372;-65
2022/06/19 04:37:13;;;;;;;7.32;4.28;;;;;;;18.08;81.83;100639.81;5530302;32;34825;-64
2022/06/19 04:40:18;;;;;;;5.05;3.40;;;;;;;18.19;80.02;100641.84;5530911;32;34408;-65
2022/06/19 04:43:20;;;;;;;6.07;3.95;;;;;;;18.31;81.12;100642.81;5530777;32;34643;-65
2022/06/19 04:46:24;;;;;;;4.68;3.60;;;;;;;18.43;81.18;100649.22;5530175;32;34058;-65
2022/06/19 04:49:27;;;;;;;4.05;3.03;;;;;;;18.47;80.15;100658.50;5530243;32;33910;-65
2022/06/19 04:52:30;;;;;;;4.57;3.50;;;;;;;18.59;79.12;100655.97;5530174;32;34571;-65
2022/06/19 04:55:32;;;;;;;6.55;3.15;;;;;;;18.65;79.92;100657.81;5530397;32;33981;-65
2022/06/19 04:58:35;;;;;;;6.70;3.60;;;;;;;18.75;79.20;100646.59;5529960;32;34071;-65
2022/06/19 05:01:39;;;;;;;5.37;3.58;;;;;;;18.89;78.39;100656.25;5529307;32;34709;-65
2022/06/19 05:04:42;;;;;;;5.75;3.70;;;;;;;19.03;76.49;100657.81;5530299;32;34730;-65
2022/06/19 05:07:45;;;;;;;4.37;3.35;;;;;;;19.04;76.25;100667.53;5529613;32;34757;-65
2022/06/19 05:10:48;;;;;;;6.68;3.58;;;;;;;19.18;75.33;100673.66;5530242;32;34210;-64
2022/06/19 05:13:51;;;;;;;6.47;3.42;;;;;;;19.36;74.15;100666.53;5530732;32;33910;-63
2022/06/19 05:16:54;;;;;;;5.30;3.62;;;;;;;19.46;75.60;100668.75;5532316;32;34011;-64
2022/06/19 05:19:57;;;;;;;9.45;2.95;;;;;;;19.51;76.17;100672.41;5532524;32;34454;-64
2022/06/19 05:23:00;;;;;;;8.98;3.60;;;;;;;19.57;75.41;100675.28;5532354;32;35307;-64
2022/06/19 05:26:18;;;;;;;4.05;3.37;;;;;;;19.76;75.01;100679.66;5532297;32;34452;-64
2022/06/19 05:29:21;;;;;;;5.20;3.33;;;;;;;19.84;74.77;100674.84;5532343;32;34580;-64
2022/06/19 05:32:25;;;;;;;5.93;3.58;;;;;;;19.98;72.40;100677.41;5531657;32;32945;-64
2022/06/19 05:35:27;;;;;;;8.50;3.90;;;;;;;20.06;72.28;100677.94;5532344;32;34049;-64
2022/06/19 05:38:31;;;;;;;7.05;3.17;;;;;;;20.18;70.79;100672.66;5532169;32;34281;-64
2022/06/19 05:41:34;;;;;;;5.05;3.40;;;;;;;20.35;71.81;100673.72;5532233;32;33990;-64
2022/06/19 05:44:37;;;;;;;4.30;3.40;;;;;;;20.44;71.60;100677.78;5532271;32;33967;-64
2022/06/19 05:47:40;;;;;;;6.53;3.50;;;;;;;20.62;69.43;100674.25;5532505;32;35237;-64
2022/06/19 05:50:42;;;;;;;5.90;3.97;;;;;;;20.70;68.54;100680.16;5532139;32;34095;-64
2022/06/19 05:53:49;;;;;;;7.47;3.85;;;;;;;20.90;67.33;100681.78;5532065;32;33894;-64
2022/06/19 05:56:51;;;;;;;8.43;3.95;;;;;;;21.04;66.97;100683.25;5532389;32;34010;-64
2022/06/19 05:59:54;;;;;;;5.87;4.30;;;;;;;21.20;66.26;100680.72;5531870;32;34675;-64
2022/06/19 06:02:57;;;;;;;7.05;4.28;;;;;;;21.38;62.82;100671.75;5531979;32;35279;-64
2022/06/19 06:06:01;;;;;;;6.90;3.50;;;;;;;21.46;63.11;100674.13;5531937;32;34137;-65
2022/06/19 06:09:04;;;;;;;6.10;3.70;;;;;;;21.50;63.82;100672.59;5531839;32;34135;-65
2022/06/19 06:12:07;;;;;;;5.35;3.28;;;;;;;21.61;64.16;100677.22;5532352;32;33975;-65
2022/06/19 06:15:10;;;;;;;6.22;3.37;;;;;;;21.81;62.90;100676.03;5531149;32;35269;-65
2022/06/19 06:18:13;;;;;;;6.03;3.53;;;;;;;21.97;61.46;100680.78;5532311;32;32718;-65
2022/06/19 06:21:19;;;;;;;4.57;3.50;;;;;;;22.11;60.39;100671.37;5531931;32;33885;-65
2022/06/19 06:24:21;;;;;;;7.28;3.85;;;;;;;22.18;59.86;100668.53;5531609;32;34001;-65
2022/06/19 06:27:24;;;;;;;7.25;3.55;;;;;;;22.33;60.39;100679.69;5531492;32;34568;-65
2022/06/19 06:30:27;;;;;;;5.35;3.42;;;;;;;22.47;58.57;100670.25;5531619;32;33973;-65
2022/06/19 06:33:38;;;;;;;4.37;3.20;;;;;;;22.62;59.34;100665.16;5532093;32;34583;-65
2022/06/19 06:36:41;;;;;;;8.10;3.15;;;;;;;22.74;58.72;100681.41;5531654;32;33973;-65
2022/06/19 06:39:43;;;;;;;5.03;2.70;;;;;;;22.92;57.58;100673.09;5531613;32;34854;-65
2022/06/19 06:42:48;;;;;;;6.15;3.20;;;;;;;23.17;57.77;100678.16;5531715;32;34531;-65
2022/06/19 06:45:51;;;;;;;6.05;3.20;;;;;;;23.22;56.31;100667.44;5531616;32;34719;-65
2022/06/19 06:49:02;;;;;;;4.87;3.42;;;;;;;23.36;57.38;100677.72;5531162;32;34034;-65
2022/06/19 06:52:08;;;;;;;6.53;3.47;;;;;;;23.50;54.87;100667.41;5531438;32;34002;-65
2022/06/19 06:55:12;;;;;;;5.20;3.25;;;;;;;23.64;53.72;100668.72;5531171;32;33983;-65
2022/06/19 06:58:14;;;;;;;5.20;2.90;;;;;;;23.84;53.94;100665.50;5531275;32;34691;-65
2022/06/19 07:01:23;;;;;;;5.37;2.90;;;;;;;24.00;49.93;100672.81;5530711;32;32336;-65
2022/06/19 07:04:26;;;;;;;5.97;3.22;;;;;;;24.33;49.59;100680.06;5530654;32;35269;-65
2022/06/19 07:07:29;;;;;;;4.87;2.85;;;;;;;24.62;48.47;100688.84;5531104;32;34366;-65
2022/06/19 07:10:32;;;;;;;3.67;1.73;;;;;;;24.87;48.26;100686.47;5530805;32;32562;-65
2022/06/19 07:13:38;;;;;;;4.25;1.70;;;;;;;25.04;43.97;100691.81;5531348;32;34089;-64
2022/06/19 07:16:41;;;;;;;4.18;1.75;;;;;;;25.23;42.74;100673.25;5531299;32;33946;-65
2022/06/19 07:19:44;;;;;;;2.75;1.50;;;;;;;25.47;44.15;100669.94;5530563;32;33767;-65
2022/06/19 07:22:46;;;;;;;2.70;1.80;;;;;;;25.68;41.27;100670.16;5531252;32;34103;-65
2022/06/19 07:25:49;;;;;;;2.95;1.65;;;;;;;25.70;41.27;100670.72;5531580;32;34055;-65
2022/06/19 07:28:52;;;;;;;3.62;1.60;;;;;;;26.03;42.45;100673.12;5531461;32;33960;-65
2022/06/19 07:32:01;;;;;;;2.70;1.50;;;;;;;26.06;40.48;100672.59;5530588;32;32495;-65
2022/06/19 07:35:04;;;;;;;3.17;1.40;;;;;;;26.35;39.48;100671.16;5530580;32;34701;-64
2022/06/19 07:38:07;;;;;;;2.35;1.40;;;;;;;26.66;40.56;100674.00;5529999;32;35226;-64
2022/06/19 07:41:09;;;;;;;4.28;1.92;;;;;;;27.17;37.14;100672.25;5531165;32;35445;-64
2022/06/19 07:44:12;;;;;;;3.50;1.95;;;;;;;27.82;36.01;100668.78;5531329;32;33962;-64
2022/06/19 07:50:36;;;;;;;5.57;2.00;;;;;;;28.24;35.83;100670.34;5530848;32;34424;-64
2022/06/19 07:53:39;;;;;;;5.20;2.12;;;;;;;29.48;33.60;100662.88;5530735;32;34197;-64
2022/06/19 07:56:41;;;;;;;5.07;2.28;;;;;;;29.53;32.64;100660.13;5529747;32;33419;-65
2022/06/19 07:59:44;;;;;;;3.78;1.90;;;;;;;28.49;35.41;100651.16;5530700;32;33902;-65
2022/06/19 08:02:49;;;;;;;2.85;2.10;;;;;;;29.58;34.18;100655.38;5530621;32;33908;-65
2022/06/19 08:05:52;;;;;;;4.80;1.98;;;;;;;30.49;32.88;100653.69;5530533;32;35260;-65
2022/06/19 08:08:55;;;;;;;3.53;2.00;;;;;;;31.02;30.92;100649.69;5530640;32;33855;-65
2022/06/19 08:12:00;;;;;;;2.10;1.58;;;;;;;30.81;30.50;100639.25;5530542;32;34155;-66
2022/06/19 08:15:02;;;;;;;4.68;1.90;;;;;;;30.99;30.13;100630.22;5530727;32;34652;-65
2022/06/19 08:18:06;;;;;;;2.40;1.83;;;;;;;30.73;30.14;100626.25;5529672;32;32471;-65
2022/06/19 08:21:10;;;;;;;3.97;1.87;;;;;;;31.01;29.08;100633.50;5530317;32;33990;-65
2022/06/19 08:24:13;;;;;;;3.62;1.80;;;;;;;31.72;28.69;100630.44;5529883;32;34222;-65
2022/06/19 08:27:15;;;;;;;2.97;1.95;;;;;;;31.99;28.16;100631.59;5530173;32;34278;-65
2022/06/19 08:30:26;;;;;;;2.78;1.75;;;;;;;32.43;27.25;100629.06;5530410;32;34546;-67
2022/06/19 08:33:38;;;;;;;2.67;1.62;;;;;;;31.51;27.80;100623.66;5530632;32;34009;-65
2022/06/19 08:36:41;;;;;;;3.80;2.30;;;;;;;32.08;28.99;100622.34;5530575;32;34340;-66
2022/06/19 08:39:46;;;;;;;3.20;2.05;;;;;;;32.08;27.44;100625.09;5529834;32;33910;-65
2022/06/19 08:43:00;;;;;;;2.87;1.70;;;;;;;31.31;29.01;100626.75;5529686;32;34800;-64
2022/06/19 08:46:18;;;;;;;4.80;1.40;;;;;;;32.87;26.95;100624.84;5529997;32;34628;-65
2022/06/19 08:49:48;;;;;;;3.50;1.70;;;;;;;33.82;25.32;100631.84;5532107;32;33973;-66
2022/06/19 08:53:15;;;;;;;1.80;1.17;;;;;;;33.65;25.42;100632.53;5532341;32;34665;-67
2022/06/19 08:56:28;;;;;;;3.17;1.30;;;;;;;32.63;26.08;100625.06;5532009;32;34805;-65
2022/06/19 08:59:56;;;;;;;1.90;1.10;;;;;;;33.50;25.22;100625.47;5518576;32;32698;-65
2022/06/19 09:03:24;;;;;;;4.03;1.50;;;;;;;32.84;25.83;100617.19;5532379;32;34010;-66
2022/06/19 09:06:47;;;;;;;2.25;1.37;;;;;;;32.83;26.27;100621.88;5532092;32;33933;-65
2022/06/19 09:10:08;;;;;;;1.70;1.20;;;;;;;33.81;25.73;100614.50;5532413;32;33911;-66
2022/06/19 09:13:14;;;;;;;2.15;1.40;;;;;;;34.45;24.37;100618.50;5532287;32;33995;-67
2022/06/19 09:16:32;;;;;;;1.83;1.55;;;;;;;35.13;23.52;100616.13;5532149;32;34147;-65
2022/06/19 09:20:15;;;;;;;3.25;1.50;;;;;;;35.07;24.08;100614.66;5532388;32;35231;-65
2022/06/19 09:23:47;;;;;;;2.15;1.30;;;;;;;34.95;23.29;100612.56;5530149;32;33963;-66
2022/06/19 09:26:53;;;;;;;3.72;1.30;;;;;;;33.88;23.79;100601.12;5524635;32;34333;-67
2022/06/19 09:30:03;;;;;;;2.00;1.40;;;;;;;32.90;24.78;100600.28;5531822;32;34026;-66
2022/06/19 09:33:23;;;;;;;2.10;1.30;;;;;;;34.42;24.38;100588.81;5531271;32;33637;-66
2022/06/19 09:36:40;;;;;;;2.78;1.40;;;;;;;35.17;23.44;100584.84;5532069;32;34672;-65
2022/06/19 09:40:06;;;;;;;2.33;1.30;;;;;;;36.24;22.77;100592.13;5532093;32;33993;-65
2022/06/19 09:43:22;;;;;;;1.37;1.02;;;;;;;36.35;21.07;100596.13;5531209;32;33899;-65
2022/06/19 09:46:50;;;;;;;2.65;1.50;;;;;;;35.51;20.73;100585.87;5532407;32;34548;-66
2022/06/19 09:49:58;;;;;;;1.98;1.25;;;;;;;36.49;20.71;100591.94;5531984;32;34871;-66
2022/06/19 09:53:16;;;;;;;2.65;1.37;;;;;;;36.21;20.69;100590.84;5532009;32;33908;-68
2022/06/19 09:56:55;;;;;;;2.75;1.48;;;;;;;35.30;21.42;100585.75;5531928;32;34671;-65
2022/06/19 10:00:09;;;;;;;4.75;1.60;;;;;;;36.04;20.97;100579.84;5531383;32;34013;-65
2022/06/19 10:03:39;;;;;;;2.58;1.40;;;;;;;36.66;20.77;100570.88;5531691;32;34479;-66
2022/06/19 10:06:49;;;;;;;3.17;1.65;;;;;;;37.26;19.97;100564.81;5531279;32;32267;-65
2022/06/19 10:09:58;;;;;;;3.00;1.60;;;;;;;37.60;19.05;100569.97;5531120;32;33772;-67
2022/06/19 10:13:04;;;;;;;3.72;1.45;;;;;;;37.27;19.36;100566.44;5532020;32;34507;-65
2022/06/19 10:16:47;;;;;;;3.42;1.80;;;;;;;37.86;20.23;100562.13;5531901;32;34655;-66
2022/06/19 10:20:15;;;;;;;2.12;1.50;;;;;;;37.89;18.36;100565.38;5531847;32;33957;-67
2022/06/19 10:23:26;;;;;;;2.85;2.00;;;;;;;38.64;17.62;100561.84;5531017;32;33418;-65
2022/06/19 10:27:02;;;;;;;3.80;1.67;;;;;;;38.56;17.85;100553.66;5531629;32;34273;-65
2022/06/19 10:30:16;;;;;;;3.03;1.40;;;;;;;36.78;19.65;100548.81;5531692;32;34356;-68
2022/06/19 10:34:03;;;;;;;2.05;1.40;;;;;;;37.60;20.01;100547.03;5531455;32;34325;-66
2022/06/19 10:37:22;;;;;;;3.85;1.40;;;;;;;38.30;17.22;100545.72;5516094;32;33843;-65
2022/06/19 10:41:03;;;;;;;3.92;2.08;;;;;;;37.75;18.23;100535.28;5531965;32;33922;-64
2022/06/19 10:44:32;;;;;;;2.87;1.67;;;;;;;38.05;17.56;100527.56;5530854;32;33003;-65
2022/06/19 10:47:46;;;;;;;2.15;1.20;;;;;;;38.81;17.17;100527.47;5531720;32;33912;-64
2022/06/19 10:51:04;;;;;;;1.95;1.30;;;;;;;38.29;16.88;100514.44;5530915;32;34040;-65
2022/06/19 10:54:16;;;;;;;7.25;1.52;;;;;;;37.61;18.34;100515.44;5530583;32;32952;-65
2022/06/19 10:57:46;;;;;;;2.65;1.17;;;;;;;38.64;16.06;100511.13;5531339;32;33643;-65
2022/06/19 11:00:55;;;;;;;3.45;1.60;;;;;;;39.09;15.99;100519.13;5530443;32;32724;-65
2022/06/19 11:04:08;;;;;;;7.35;1.50;;;;;;;39.33;16.42;100504.31;5531551;32;33888;-65
2022/06/19 11:07:16;;;;;;;3.65;1.52;;;;;;;39.18;16.19;100510.63;5531309;32;34684;-64
2022/06/19 11:10:43;;;;;;;1.58;1.20;;;;;;;38.98;16.53;100509.72;5530636;32;34324;-65
2022/06/19 11:14:27;;;;;;;1.85;1.20;;;;;;;39.10;16.63;100499.38;5531333;32;34233;-66
2022/06/19 11:17:40;;;;;;;2.50;1.60;;;;;;;39.91;15.41;100500.63;5453180;32;33997;-66
2022/06/19 11:20:59;;;;;;;1.83;1.27;;;;;;;39.24;16.24;100506.44;5440713;32;32840;-66
2022/06/19 11:24:05;;;;;;;2.97;1.50;;;;;;;40.19;16.11;100502.44;5453316;32;34710;-65
2022/06/19 11:27:17;;;;;;;3.30;1.70;;;;;;;40.02;16.57;100500.06;5453718;32;33961;-67
2022/06/19 11:30:36;;;;;;;2.75;1.58;;;;;;;38.29;17.42;100488.72;5440061;32;33097;-68
2022/06/19 11:33:41;;;;;;;2.37;1.40;;;;;;;40.83;15.23;100489.88;5453549;32;34523;-67
2022/06/19 11:36:46;;;;;;;2.58;1.30;;;;;;;40.88;14.71;100482.03;5440773;32;32650;-65
2022/06/19 11:39:51;;;;;;;1.87;1.23;;;;;;;39.73;15.74;100473.56;5453288;32;33955;-67
2022/06/19 11:42:58;;;;;;;2.37;1.33;;;;;;;41.38;14.66;100469.81;5453244;32;33982;-66
2022/06/19 11:46:06;;;;;;;2.40;1.25;;;;;;;39.75;15.74;100466.50;5453269;32;34172;-66
2022/06/19 11:49:27;;;;;;;1.40;1.30;;;;;;;42.55;14.08;100471.53;5453083;32;34614;-66
2022/06/19 11:52:47;;;;;;;3.00;1.37;;;;;;;42.38;13.51;100458.19;5528379;32;34059;-66
2022/06/19 11:55:52;;;;;;;1.67;1.10;;;;;;;40.83;15.59;100467.63;5531019;32;33965;-65
2022/06/19 11:59:01;;;;;;;3.87;1.60;;;;;;;40.00;15.06;100463.47;5531051;32;34091;-65
2022/06/19 12:02:34;;;;;;;3.62;1.27;;;;;;;42.21;14.43;100453.97;5529895;32;32630;-66
2022/06/19 12:05:43;;;;;;;1.65;1.33;;;;;;;43.05;13.31;100467.28;5529907;32;34139;-65
2022/06/19 12:09:00;;;;;;;3.20;1.40;;;;;;;43.64;13.64;100463.44;5530824;32;34013;-65
2022/06/19 12:12:12;;;;;;;3.53;1.35;;;;;;;43.51;12.83;100445.38;5530053;32;32990;-65
2022/06/19 12:15:21;;;;;;;6.55;1.08;;;;;;;43.35;13.74;100439.25;5530742;32;34791;-66
2022/06/19 12:18:25;;;;;;;1.48;1.20;;;;;;;41.38;13.58;100438.38;5530643;32;33967;-65
2022/06/19 12:21:35;;;;;;;1.42;1.10;;;;;;;39.82;14.90;100429.75;5529431;32;33326;-65
2022/06/19 12:24:50;;;;;;;2.95;1.40;;;;;;;40.03;14.70;100427.47;5530928;32;33965;-66
2022/06/19 12:28:22;;;;;;;2.03;1.37;;;;;;;42.77;13.32;100431.53;5529918;32;34030;-65
2022/06/19 12:31:31;;;;;;;5.95;1.40;;;;;;;42.11;13.97;100417.59;5529527;32;33856;-66
2022/06/19 12:34:40;;;;;;;1.45;1.30;;;;;;;42.08;14.09;100425.50;5530548;32;34076;-65
2022/06/19 12:37:44;;;;;;;1.50;1.30;;;;;;;43.01;14.24;100415.41;5530443;32;35408;-65
2022/06/19 12:41:10;;;;;;;2.47;1.40;;;;;;;43.21;13.03;100403.63;5530503;32;34525;-66
2022/06/19 12:44:34;;;;;;;3.20;1.42;;;;;;;42.42;13.21;100406.81;5502911;32;33968;-66
2022/06/19 12:48:09;;;;;;;1.75;1.45;;;;;;;42.47;13.23;100411.25;5529750;32;32659;-65
2022/06/19 12:51:21;;;;;;;3.08;1.35;;;;;;;43.51;12.67;100409.06;5516783;32;33168;-65
2022/06/19 12:54:32;;;;;;;6.50;1.35;;;;;;;42.04;13.40;100396.81;5530071;32;34060;-65
2022/06/19 12:57:45;;;;;;;3.28;1.30;;;;;;;42.93;13.50;100392.22;5530193;32;34384;-66
2022/06/19 13:01:04;;;;;;;3.92;1.17;;;;;;;42.78;13.94;100382.09;5529839;32;33980;-64
2022/06/19 13:05:01;;;;;;;6.22;1.17;;;;;;;43.66;12.94;100402.38;5529958;32;33955;-67
2022/06/19 13:08:28;;;;;;;3.60;1.00;;;;;;;45.42;11.33;100387.22;5462317;32;34282;-65
2022/06/19 13:12:05;;;;;;;1.08;0.93;;;;;;;42.64;12.33;100382.75;5529622;32;34379;-67
2022/06/19 13:15:29;;;;;;;1.73;1.00;;;;;;;42.63;13.72;100378.34;5529964;32;33910;-65
2022/06/19 13:18:51;;;;;;;1.48;0.90;;;;;;;42.20;12.94;100363.13;5516053;32;34150;-65
2022/06/19 13:22:20;;;;;;;1.62;1.10;;;;;;;44.17;12.22;100365.06;5529400;32;33886;-65
2022/06/19 13:25:44;;;;;;;2.20;1.00;;;;;;;45.70;11.10;100371.53;5530017;32;34277;-66
2022/06/19 13:28:59;;;;;;;5.03;1.10;;;;;;;43.96;11.98;100353.81;5529756;32;33851;-66
2022/06/19 13:32:38;;;;;;;3.15;1.05;;;;;;;42.24;13.53;100340.88;5529184;32;32977;-66
2022/06/19 13:35:48;;;;;;;1.45;1.00;;;;;;;42.91;13.65;100347.12;5498363;32;33786;-66
2022/06/19 13:39:02;;;;;;;1.20;0.90;;;;;;;43.93;12.16;100344.22;5531722;32;32339;-66
2022/06/19 13:42:27;;;;;;;;;;;;;;;43.85;12.66;100336.19;5531905;32;35459;-66
2022/06/19 13:46:02;;;;;;;2.20;1.10;;;;;;;44.34;11.90;100339.16;5532034;32;34384;-66
2022/06/19 13:49:29;;;;;;;4.30;1.23;;;;;;;44.78;10.72;100330.44;5526921;32;34251;-66
2022/06/19 13:52:33;;;;;;;3.35;1.12;;;;;;;45.84;10.78;100321.03;5531990;32;34294;-67
2022/06/19 13:55:58;;;;;;;1.90;1.23;;;;;;;46.27;10.36;100321.63;5530839;32;33416;-66
2022/06/19 13:59:16;;;;;;;2.22;1.10;;;;;;;45.52;11.55;100321.13;5532058;32;34059;-66
2022/06/19 14:02:40;;;;;;;3.30;1.30;;;;;;;46.79;10.32;100316.81;5531712;32;35255;-66
2022/06/19 14:05:47;;;;;;;5.70;1.15;;;;;;;45.37;11.46;100311.94;5531833;32;33869;-65
2022/06/19 14:09:20;;;;;;;2.83;1.20;;;;;;;45.85;11.62;100317.81;5531027;32;34066;-66
2022/06/19 14:12:32;;;;;;;1.50;1.00;;;;;;;46.30;10.86;100308.75;5531926;32;33898;-66
2022/06/19 14:15:56;;;;;;;2.35;1.33;;;;;;;45.05;12.13;100293.63;5531027;32;34143;-66
2022/06/19 14:19:17;;;;;;;4.10;1.73;;;;;;;43.90;13.03;100299.47;5531514;32;35280;-66
2022/06/19 14:22:26;;;;;;;3.17;1.50;;;;;;;44.02;12.70;100279.53;5531592;32;34145;-67
2022/06/19 14:25:51;;;;;;;2.55;1.30;;;;;;;41.55;14.28;100268.78;5531266;32;33914;-65
2022/06/19 14:29:32;;;;;;;2.15;1.37;;;;;;;41.73;14.50;100257.06;5518221;32;34019;-66
2022/06/19 14:32:44;;;;;;;2.05;1.37;;;;;;;41.51;15.14;100259.59;5531925;32;34614;-65
2022/06/19 14:36:10;;;;;;;3.33;1.30;;;;;;;42.78;13.67;100265.72;5531434;32;34627;-65
2022/06/19 14:39:25;;;;;;;1.60;1.27;;;;;;;44.03;12.64;100250.37;5531553;32;33908;-65
2022/06/19 14:42:28;;;;;;;2.30;1.15;;;;;;;45.12;12.12;100249.63;5530973;32;33986;-65
2022/06/19 14:45:38;;;;;;;3.67;1.12;;;;;;;46.05;11.79;100244.37;5530967;32;34432;-64
2022/06/19 14:49:01;;;;;;;1.55;1.12;;;;;;;46.37;11.38;100249.78;5531160;32;34281;-65